Time;durP1;ratioP1;P1;durP2;ratioP2;P2;SDS_P1;SDS_P2;PMS_P1;PMS_P2;Temp;Humidity;BMP_temperature;BMP_pressure;BME280_temperature;BME280_humidity;BME280_pressure;Samples;Min_cycle;Max_cycle;Signal;HPM_P1;HPM_P2
2022/05/01 04:00:39;;;;;;;58.47;33.73;;;10.00;99.90;;;;;;5975667;22;20504;-78
2022/05/01 04:03:06;;;;;;;67.37;36.37;;;10.00;99.90;;;;;;5026551;28;20850;-76
2022/05/01 04:05:33;;;;;;;54.20;35.07;;;10.00;99.90;;;;;;5027428;28;21003;-76
2022/05/01 04:08:00;;;;;;;61.30;33.30;;;10.00;99.90;;;;;;5027337;28;20480;-77
2022/05/01 04:10:27;;;;;;;59.20;36.03;;;10.00;99.90;;;;;;5029097;28;20450;-76
2022/05/01 04:12:54;;;;;;;63.10;36.80;;;10.00;99.90;;;;;;5046370;28;20449;-76
2022/05/01 04:15:22;;;;;;;54.70;34.10;;;10.00;99.90;;;;;;5047399;28;20453;-75
2022/05/01 04:17:50;;;;;;;52.67;33.27;;;10.10;99.90;;;;;;5046997;28;21216;-76
2022/05/01 04:20:18;;;;;;;53.80;32.83;;;10.10;99.90;;;;;;5046928;28;21031;-76
2022/05/01 04:22:47;;;;;;;52.10;33.07;;;10.20;99.90;;;;;;5045962;28;20956;-75
2022/05/01 04:25:18;;;;;;;49.63;32.97;;;10.20;99.90;;;;;;5046518;28;20457;-76
2022/05/01 04:27:46;;;;;;;57.87;34.27;;;10.10;99.90;;;;;;5046159;28;20465;-75
2022/05/01 04:30:15;;;;;;;55.73;33.80;;;10.10;99.90;;;;;;5046784;28;21037;-76
2022/05/01 04:32:54;;;;;;;55.83;34.03;;;10.00;99.90;;;;;;5046264;28;20449;-76
2022/05/01 04:35:28;;;;;;;57.60;34.47;;;10.10;99.90;;;;;;5046700;28;20453;-75
2022/05/01 04:37:59;;;;;;;61.17;36.00;;;10.10;99.90;;;;;;5046743;28;20538;-77
2022/05/01 04:40:26;;;;;;;63.30;35.30;;;10.10;99.90;;;;;;5047091;28;20446;-76
2022/05/01 04:42:53;;;;;;;62.33;34.97;;;10.10;99.90;;;;;;5045746;28;21083;-77
2022/05/01 04:45:20;;;;;;;59.77;34.53;;;10.10;99.90;;;;;;5046500;28;20486;-77
2022/05/01 04:47:47;;;;;;;60.30;36.30;;;10.10;99.90;;;;;;5046581;28;20449;-77
2022/05/01 04:50:16;;;;;;;55.30;33.03;;;10.00;99.90;;;;;;5046327;28;20465;-77
2022/05/01 04:52:43;;;;;;;57.13;34.60;;;10.10;99.90;;;;;;5045516;28;20534;-77
2022/05/01 04:55:10;;;;;;;67.57;35.50;;;10.10;99.90;;;;;;5046169;28;20445;-76
2022/05/01 04:57:39;;;;;;;60.00;34.97;;;10.10;99.90;;;;;;5046372;28;20831;-76
2022/05/01 05:00:07;;;;;;;63.00;35.00;;;10.00;99.90;;;;;;5046609;28;20461;-77
2022/05/01 05:02:36;;;;;;;59.20;35.10;;;10.10;99.90;;;;;;5045836;28;20878;-74
2022/05/01 05:05:04;;;;;;;61.13;34.70;;;10.10;99.90;;;;;;5046217;28;20489;-75
2022/05/01 05:07:32;;;;;;;65.30;37.23;;;10.10;99.90;;;;;;5046514;28;20459;-75
2022/05/01 05:09:59;;;;;;;59.00;33.80;;;10.00;99.90;;;;;;5045892;28;20455;-74
2022/05/01 05:12:26;;;;;;;59.73;35.20;;;10.00;99.90;;;;;;5045897;28;20471;-75
2022/05/01 05:14:55;;;;;;;56.87;34.43;;;10.00;99.90;;;;;;5046440;28;20937;-75
2022/05/01 05:17:23;;;;;;;61.70;33.13;;;10.00;99.90;;;;;;5046205;28;20463;-75
2022/05/01 05:19:50;;;;;;;66.63;36.33;;;10.00;99.90;;;;;;5045960;28;20459;-75
2022/05/01 05:22:17;;;;;;;65.87;36.87;;;9.90;99.90;;;;;;5044987;28;20848;-75
2022/05/01 05:24:45;;;;;;;58.80;34.93;;;9.90;99.90;;;;;;5046029;28;20499;-75
2022/05/01 05:27:12;;;;;;;61.50;35.27;;;10.00;99.90;;;;;;5046025;28;20469;-75
2022/05/01 05:29:39;;;;;;;51.00;32.70;;;10.00;99.90;;;;;;5046208;28;20453;-75
2022/05/01 05:32:08;;;;;;;66.93;37.10;;;10.10;99.90;;;;;;5045549;28;20468;-75
2022/05/01 05:34:34;;;;;;;61.93;36.83;;;10.10;99.90;;;;;;5046052;28;20455;-75
2022/05/01 05:37:01;;;;;;;53.10;33.90;;;10.10;99.90;;;;;;5046011;28;20453;-75
2022/05/01 05:39:28;;;;;;;62.70;37.20;;;10.20;99.90;;;;;;5045765;28;20812;-75
2022/05/01 05:41:57;;;;;;;59.57;36.20;;;10.20;99.90;;;24.12;100.00;56521.75;5044937;28;20834;-68
2022/05/01 05:44:24;;;;;;;64.40;35.47;;;10.30;99.90;;;;;;5005510;28;21226;-68
2022/05/01 05:46:51;;;;;;;58.27;35.00;;;10.30;99.90;;;;;;5005533;28;20455;-68
2022/05/01 05:49:18;;;;;;;59.20;34.80;;;10.30;99.90;;;;;;5005984;28;20449;-67
2022/05/01 05:51:45;;;;;;;63.37;35.93;;;10.20;99.90;;;;;;5005499;28;20470;-68
2022/05/01 05:54:11;;;;;;;63.47;35.27;;;10.20;99.90;;;;;;5005169;28;20457;-68
2022/05/01 05:56:38;;;;;;;64.77;36.87;;;10.30;99.90;;;;;;5005700;28;20975;-72
2022/05/01 05:59:07;;;;;;;60.50;35.77;;;10.20;99.90;;;;;;5005392;28;20469;-74
2022/05/01 06:01:34;;;;;;;64.70;36.70;;;10.20;99.90;;;;;;5005204;28;20490;-74
2022/05/01 06:04:00;;;;;;;66.70;35.50;;;10.20;99.90;;;;;;5005133;28;20494;-73
2022/05/01 06:06:28;;;;;;;62.23;34.70;;;10.30;99.90;;;;;;5005451;28;20450;-74
2022/05/01 06:08:54;;;;;;;62.70;35.90;;;10.30;99.90;;;;;;5005495;28;20989;-74
2022/05/01 06:11:21;;;;;;;66.30;36.83;;;10.30;99.90;;;;;;5003842;28;20484;-74
2022/05/01 06:13:48;;;;;;;62.37;35.73;;;10.30;99.90;;;;;;5004655;28;20561;-73
2022/05/01 06:16:16;;;;;;;62.63;35.63;;;10.30;99.90;;;;;;5005077;28;20454;-73
2022/05/01 06:18:43;;;;;;;55.73;33.20;;;10.30;99.90;;;;;;5003535;28;20958;-74
2022/05/01 06:21:11;;;;;;;60.57;36.10;;;10.30;99.90;;;;;;5004981;28;20957;-73
2022/05/01 06:23:38;;;;;;;60.70;33.27;;;10.30;99.90;;;;;;5004704;28;20494;-72
2022/05/01 06:26:07;;;;;;;58.10;34.03;;;10.40;99.90;;;;;;5005808;28;20549;-74
2022/05/01 06:28:34;;;;;;;58.80;38.88;;;10.40;99.90;;;;;;5004509;28;20450;-73
2022/05/01 06:31:03;;;;;;;62.33;38.13;;;10.60;99.90;;;;;;5005265;28;20242;-66
2022/05/01 06:33:34;;;;;;;52.00;34.47;;;10.60;99.90;;;;;;5004535;28;20459;-66
2022/05/01 06:36:02;;;;;;;52.47;32.90;;;10.60;99.90;;;;;;5005054;28;20463;-66
2022/05/01 06:38:29;;;;;;;55.40;33.60;;;10.60;99.90;;;;;;5005375;28;20450;-67
2022/05/01 06:40:56;;;;;;;51.40;33.20;;;10.60;99.90;;;;;;5005206;28;20477;-68
2022/05/01 06:43:23;;;;;;;56.63;32.17;;;10.60;99.90;;;;;;5004731;28;20653;-74
2022/05/01 06:45:50;;;;;;;53.57;32.53;;;10.60;99.90;;;;;;5005252;28;20451;-73
2022/05/01 06:48:17;;;;;;;52.67;32.73;;;10.60;99.90;;;;;;5005012;28;20459;-73
2022/05/01 06:50:45;;;;;;;55.43;30.60;;;10.60;99.90;;;;;;5008033;28;20506;-65
2022/05/01 06:53:12;;;;;;;55.83;31.40;;;10.60;99.90;;;;;;5007899;28;20509;-74
2022/05/01 06:55:39;;;;;;;53.20;31.77;;;10.70;99.90;;;;;;5008237;28;20482;-73
2022/05/01 06:58:06;;;;;;;49.33;30.13;;;10.70;99.90;;;;;;5008626;28;20478;-73
2022/05/01 07:00:33;;;;;;;48.20;31.07;;;10.70;99.90;;;;;;5008287;28;20490;-72
2022/05/01 07:03:00;;;;;;;48.50;31.67;;;10.80;99.90;;;;;;5007593;28;20454;-74
2022/05/01 07:05:27;;;;;;;47.53;30.00;;;10.90;99.90;;;;;;5006241;28;20508;-73
2022/05/01 07:07:55;;;;;;;45.30;29.53;;;10.90;99.90;;;;;;5007486;28;20537;-73
2022/05/01 07:10:23;;;;;;;51.10;28.43;;;11.00;99.90;;;;;;5007241;28;20465;-74
2022/05/01 07:12:50;;;;;;;45.27;29.17;;;11.10;99.90;;;;;;5007768;28;20569;-74
2022/05/01 07:15:17;;;;;;;44.73;28.20;;;11.10;99.90;;;;;;5007836;28;20455;-74
2022/05/01 07:17:44;;;;;;;46.30;29.70;;;11.20;99.90;;;;;;5008263;28;20458;-75
2022/05/01 07:20:12;;;;;;;44.10;28.20;;;11.20;99.90;;;;;;5006892;28;20947;-73
2022/05/01 07:22:39;;;;;;;47.57;30.77;;;11.30;99.90;;;;;;5007517;28;20481;-75
2022/05/01 07:25:08;;;;;;;41.33;26.00;;;11.20;99.90;;;;;;5007859;28;20497;-74
2022/05/01 07:27:35;;;;;;;43.90;27.60;;;11.10;99.90;;;;;;5007737;28;20449;-75
2022/05/01 07:30:02;;;;;;;43.63;28.27;;;11.10;99.90;;;;;;5007775;28;20450;-74
2022/05/01 07:32:29;;;;;;;45.00;28.57;;;11.20;99.90;;;;;;5007192;28;20475;-65
2022/05/01 07:34:56;;;;;;;45.53;29.10;;;11.20;99.90;;;;;;5007821;28;20446;-68
2022/05/01 07:37:24;;;;;;;42.27;28.53;;;11.30;99.90;;;;;;5007495;28;20481;-69
2022/05/01 07:39:52;;;;;;;41.87;26.30;;;11.20;99.90;;;;;;5007693;28;20458;-70
2022/05/01 07:42:22;;;;;;;49.87;28.53;;;11.20;99.90;;;-143.14;100.00;56521.75;5005782;28;20486;-70
2022/05/01 07:44:48;;;;;;;42.20;27.30;;;11.20;99.90;;;;;;5007691;28;20495;-70
2022/05/01 07:47:15;;;;;;;42.70;28.70;;;11.20;99.90;;;;;;5007573;28;21040;-74
2022/05/01 07:49:42;;;;;;;45.60;28.50;;;11.30;99.90;;;;;;5007896;28;20462;-77
2022/05/01 07:52:09;;;;;;;36.63;25.60;;;11.30;99.90;;;;;;5007902;28;20886;-73
2022/05/01 07:54:36;;;;;;;37.83;25.67;;;11.30;99.90;;;;;;5008917;28;20489;-76
2022/05/01 07:57:04;;;;;;;32.67;22.27;;;11.40;99.90;;;;;;5006539;28;20470;-75
2022/05/01 07:59:32;;;;;;;40.27;26.70;;;11.40;99.90;;;;;;5005378;28;20469;-68
2022/05/01 08:01:59;;;;;;;38.73;25.43;;;11.50;99.90;;;;;;5000624;28;20487;-70
2022/05/01 08:04:28;;;;;;;36.60;24.60;;;11.50;99.90;;;;;;5006805;28;20866;-65
2022/05/01 08:06:55;;;;;;;37.47;25.50;;;11.50;99.90;;;;;;5007198;28;20470;-75
2022/05/01 08:09:22;;;;;;;36.50;24.23;;;11.50;99.90;;;;;;5007132;28;20570;-73
2022/05/01 08:11:48;;;;;;;36.80;24.37;;;11.50;99.90;;;;;;5006110;28;20475;-76
2022/05/01 08:14:15;;;;;;;35.00;25.33;;;11.50;99.90;;;;;;5006861;28;20449;-74
2022/05/01 08:16:44;;;;;;;32.30;23.33;;;11.60;99.90;;;;;;5006477;28;21069;-75
2022/05/01 08:21:55;;;;;;;35.72;27.40;;;11.60;99.90;;;;;;5004989;28;20495;-73
2022/05/01 08:24:22;;;;;;;34.33;24.10;;;11.90;99.90;;;;;;5006884;28;20789;-74
2022/05/01 08:26:49;;;;;;;37.90;24.83;;;11.90;99.90;;;;;;5006878;28;20465;-73
2022/05/01 08:29:16;;;;;;;38.97;24.50;;;12.00;99.90;;;;;;5006427;28;20513;-73
2022/05/01 08:31:45;;;;;;;37.03;23.87;;;11.90;99.90;;;;;;5006859;28;20467;-73
2022/05/01 08:34:12;;;;;;;40.00;24.63;;;12.00;99.90;;;;;;5006565;28;20502;-75
2022/05/01 08:36:39;;;;;;;35.90;23.90;;;11.90;99.90;;;;;;5005304;28;20870;-74
2022/05/01 08:39:07;;;;;;;38.20;24.73;;;11.90;99.90;;;;;;5004286;28;20479;-75
2022/05/01 08:41:34;;;;;;;33.40;23.10;;;12.00;99.90;;;;;;5006056;28;20479;-74
2022/05/01 08:44:02;;;;;;;37.90;24.07;;;12.10;99.90;;;;;;5005485;28;20447;-74
2022/05/01 08:46:55;;;;;;;37.33;23.67;;;12.10;99.90;;;;;;5005811;28;20480;-72
2022/05/01 08:49:22;;;;;;;31.70;22.67;;;12.10;99.90;;;;;;5005903;28;20459;-72
2022/05/01 08:51:52;;;;;;;32.73;22.90;;;12.10;99.90;;;;;;5006644;28;20702;-74
2022/05/01 08:54:18;;;;;;;30.80;23.07;;;12.10;99.90;;;;;;5006070;28;20447;-74
2022/05/01 08:56:46;;;;;;;34.27;21.63;;;12.10;99.90;;;;;;5007054;28;20551;-75
2022/05/01 08:59:15;;;;;;;31.47;22.00;;;12.20;99.90;;;;;;5006494;28;20483;-73
2022/05/01 09:01:44;;;;;;;30.10;21.00;;;12.30;99.90;;;;;;5006060;28;20497;-73
2022/05/01 09:04:14;;;;;;;33.17;21.87;;;12.40;99.90;;;;;;5007590;28;20838;-75
2022/05/01 09:06:43;;;;;;;31.37;20.00;;;12.40;99.90;;;;;;5005752;28;20466;-76
2022/05/01 09:09:11;;;;;;;34.60;22.20;;;12.30;99.90;;;;;;5002256;28;20541;-77
2022/05/01 09:14:24;;;;;;;26.93;18.90;;;12.50;99.90;;;;;;5003122;28;20426;-77
2022/05/01 09:17:09;;;;;;;26.77;19.53;;;12.70;99.90;;;;;;5006216;28;20457;-77
2022/05/01 09:19:37;;;;;;;25.63;19.50;;;12.80;99.90;;;;;;5005814;28;20447;-77
2022/05/01 09:22:05;;;;;;;27.67;19.90;;;12.80;99.90;;;;;;5005000;28;20491;-77
2022/05/01 09:24:32;;;;;;;26.30;19.40;;;12.90;99.90;;;;;;5005927;28;20589;-77
2022/05/01 09:27:01;;;;;;;26.23;19.83;;;13.00;99.90;;;;;;5005543;28;21189;-77
2022/05/01 09:29:32;;;;;;;29.10;20.07;;;13.00;99.90;;;;;;4998799;28;20461;-75
2022/05/01 09:32:00;;;;;;;28.53;20.40;;;13.00;99.90;;;;;;5005251;28;20497;-68
2022/05/01 09:34:29;;;;;;;27.27;19.30;;;13.10;99.90;;;;;;5005855;28;20517;-73
2022/05/01 09:36:59;;;;;;;26.93;19.97;;;13.10;99.90;;;;;;5005963;28;20538;-75
2022/05/01 09:39:28;;;;;;;24.57;18.10;;;13.20;99.90;;;;;;5007001;28;20509;-77
2022/05/01 09:41:56;;;;;;;31.43;19.73;;;13.30;99.90;;;;;;5005480;28;20883;-75
2022/05/01 09:44:23;;;;;;;29.43;19.10;;;13.40;99.90;;;;;;5005156;28;20509;-65
2022/05/01 09:46:52;;;;;;;26.50;17.43;;;13.40;99.90;;;;;;5004270;28;20477;-73
2022/05/01 09:49:19;;;;;;;24.47;19.30;;;13.40;99.90;;;;;;5005990;28;20513;-76
2022/05/01 09:51:54;;;;;;;24.97;18.23;;;13.40;99.90;;;;;;5006453;28;20487;-76
2022/05/01 09:54:23;;;;;;;22.03;16.83;;;13.50;99.90;;;;;;5006400;28;20465;-75
2022/05/01 09:56:52;;;;;;;25.10;19.30;;;13.50;99.90;;;;;;5005534;28;20511;-77
2022/05/01 09:59:21;;;;;;;23.57;18.07;;;13.60;99.90;;;;;;5006892;28;20522;-74
2022/05/01 10:01:58;;;;;;;26.17;18.83;;;13.60;99.90;;;;;;5007238;28;20485;-76
2022/05/01 10:04:25;;;;;;;21.90;16.23;;;13.60;99.90;;;;;;5007684;28;20459;-75
2022/05/01 10:06:53;;;;;;;23.63;17.57;;;13.60;99.90;;;;;;5006488;28;20962;-77
2022/05/01 10:09:25;;;;;;;21.10;16.23;;;13.60;99.90;;;;;;5006951;28;20459;-77
2022/05/01 10:11:54;;;;;;;23.93;16.30;;;13.60;99.90;;;;;;5008506;28;20485;-76
2022/05/01 10:14:22;;;;;;;26.73;17.17;;;13.80;99.90;;;;;;5005758;28;20961;-75
2022/05/01 10:16:50;;;;;;;22.63;16.73;;;13.80;99.90;;;;;;5005483;28;20454;-76
2022/05/01 10:19:17;;;;;;;24.80;16.70;;;13.90;99.90;;;;;;5005778;28;20465;-76
2022/05/01 10:21:47;;;;;;;23.83;16.10;;;13.90;99.90;;;;;;5005314;28;20463;-76
2022/05/01 10:24:14;;;;;;;21.07;14.83;;;13.90;99.90;;;;;;5006391;28;20435;-76
2022/05/01 10:26:51;;;;;;;19.70;14.67;;;14.00;99.90;;;;;;5009143;28;20862;-64
2022/05/01 10:29:37;;;;;;;22.33;15.10;;;14.20;99.90;;;;;;5009161;28;20458;-70
2022/05/01 10:32:36;;;;;;;18.60;14.33;;;14.30;99.90;;;;;;5007867;28;21001;-70
2022/05/01 10:35:41;;;;;;;23.40;15.03;;;14.40;99.90;;;;;;5001475;28;20466;-69
2022/05/01 10:38:23;;;;;;;20.03;14.80;;;14.50;99.90;;;;;;4967199;28;20982;-73
2022/05/01 10:40:52;;;;;;;21.80;14.90;;;14.30;99.90;;;;;;5003352;28;21101;-75
2022/05/01 10:43:26;;;;;;;15.97;13.30;;;14.50;99.90;;;;;;5008371;28;20439;-75
2022/05/01 10:45:53;;;;;;;16.00;13.40;;;14.60;99.90;;;;;;5009033;28;20977;-75
2022/05/01 10:48:31;;;;;;;18.23;13.97;;;14.60;99.90;;;;;;5008851;28;20497;-75
2022/05/01 10:51:52;;;;;;;17.90;13.77;;;14.60;99.90;;;;;;5008272;28;20475;-70
2022/05/01 10:54:37;;;;;;;18.43;14.10;;;14.70;99.90;;;;;;5008938;28;20438;-72
2022/05/01 10:57:15;;;;;;;20.77;15.20;;;14.80;99.90;;;;;;5008988;28;20450;-72
2022/05/01 10:59:46;;;;;;;19.50;14.50;;;14.90;99.90;;;;;;5008776;28;20459;-72
2022/05/01 11:02:25;;;;;;;16.30;13.60;;;14.90;99.90;;;;;;5008060;28;20482;-72
2022/05/01 11:04:53;;;;;;;18.40;13.50;;;15.00;99.90;;;;;;5008891;28;20498;-71
2022/05/01 11:07:23;;;;;;;25.80;14.90;;;15.10;99.90;;;;;;5009013;28;20446;-76
2022/05/01 11:09:51;;;;;;;18.47;14.10;;;15.10;99.90;;;-143.14;100.00;56521.75;5008079;28;20577;-77
2022/05/01 11:12:22;;;;;;;15.90;12.77;;;15.20;99.90;;;;;;5006651;28;20463;-77
2022/05/01 11:14:55;;;;;;;16.13;12.43;;;15.30;99.90;;;;;;5007303;28;20608;-76
2022/05/01 11:17:49;;;;;;;16.80;12.60;;;15.30;99.90;;;;;;5007742;28;20435;-76
2022/05/01 11:20:31;;;;;;;15.20;12.67;;;15.40;99.90;;;;;;5007995;28;20549;-76
2022/05/01 11:22:58;;;;;;;17.83;13.33;;;15.50;99.90;;;;;;5008050;28;20451;-77
2022/05/01 11:25:32;;;;;;;18.77;13.77;;;15.60;99.90;;;;;;5008374;28;20875;-77
2022/05/01 11:28:00;;;;;;;20.50;13.67;;;15.60;99.90;;;;;;5014964;28;20447;-73
2022/05/01 11:30:38;;;;;;;16.27;11.83;;;15.60;99.90;;;;;;5014813;28;20521;-75
2022/05/01 11:33:08;;;;;;;14.97;12.13;;;15.50;99.90;;;;;;5014437;28;20546;-77
2022/05/01 11:36:04;;;;;;;17.93;11.93;;;15.50;99.90;;;;;;5018359;28;20455;-76
2022/05/01 11:38:33;;;;;;;14.97;11.83;;;15.40;99.90;;;;;;5013898;28;20458;-75
2022/05/01 11:41:02;;;;;;;14.80;11.97;;;15.50;99.90;;;;;;5013082;28;20475;-77
2022/05/01 11:43:30;;;;;;;16.47;12.00;;;15.60;99.90;;;;;;5008052;28;20550;-76
2022/05/01 11:46:01;;;;;;;14.90;11.40;;;15.60;99.90;;;;;;5015516;28;21068;-74
2022/05/01 11:48:29;;;;;;;16.80;11.70;;;15.50;99.90;;;;;;5018529;28;20466;-77
2022/05/01 11:50:58;;;;;;;18.37;12.33;;;15.60;99.90;;;;;;5016383;28;20936;-76
2022/05/01 11:53:27;;;;;;;13.97;11.47;;;15.60;99.90;;;;;;5013698;28;20459;-76
2022/05/01 12:04:27;;;;;;;14.17;11.50;;;15.80;99.90;;;;;;5016303;28;20434;-73
2022/05/01 12:06:59;;;;;;;13.93;10.97;;;15.70;99.90;;;;;;5007104;28;20498;-73
2022/05/01 12:09:26;;;;;;;12.87;10.80;;;15.60;99.90;;;;;;5007054;28;20459;-73
2022/05/01 12:11:53;;;;;;;14.63;10.60;;;15.60;99.90;;;;;;5006461;28;20533;-73
2022/05/01 12:14:21;;;;;;;15.40;10.80;;;15.70;99.90;;;-143.14;100.00;56521.75;5006403;28;20465;-74
2022/05/01 12:16:49;;;;;;;13.50;11.33;;;15.70;99.90;;;-143.14;100.00;56521.75;5005385;28;20512;-73
2022/05/01 12:19:17;;;;;;;17.10;13.10;;;15.70;99.90;;;-143.14;100.00;56521.75;5006750;28;20450;-73
2022/05/01 12:21:44;;;;;;;14.80;12.10;;;15.70;99.90;;;-143.14;100.00;56521.75;5006377;28;20545;-74
2022/05/01 12:24:13;;;;;;;13.23;11.33;;;15.70;99.90;;;-143.14;100.00;56521.75;5006679;28;20455;-73
2022/05/01 12:26:49;;;;;;;17.30;12.70;;;15.60;99.90;;;24.77;100.00;56521.75;5006436;28;20493;-74
2022/05/01 12:29:16;;;;;;;17.43;12.17;;;15.60;99.90;;;-143.14;100.00;56521.75;5006233;28;20438;-74
2022/05/01 12:32:13;;;;;;;15.27;11.40;;;15.60;99.90;;;-143.14;100.00;56521.75;5006249;28;20630;-73
2022/05/01 12:34:55;;;;;;;12.00;10.70;;;15.60;99.90;;;-143.14;100.00;56521.75;4982971;28;20466;-73
2022/05/01 12:37:27;;;;;;;20.20;11.47;;;15.70;99.90;;;-143.14;100.00;56521.75;5006837;28;20442;-74
2022/05/01 12:39:59;;;;;;;14.10;10.60;;;15.70;99.90;;;-143.14;100.00;56521.75;5006848;28;20427;-73
2022/05/01 12:45:17;;;;;;;21.33;13.27;;;15.70;99.90;;;-143.14;100.00;56521.75;4994891;28;20518;-71
2022/05/01 12:47:48;;;;;;;14.10;11.50;;;15.70;99.90;;;-143.14;100.00;56521.75;4988573;28;20447;-72
2022/05/01 12:50:27;;;;;;;15.20;11.90;;;15.80;99.90;;;-143.14;100.00;56521.75;4987215;28;20465;-72
2022/05/01 12:52:59;;;;;;;15.50;11.80;;;15.90;99.90;;;-143.14;100.00;56521.75;4986249;28;20466;-71
2022/05/01 12:55:35;;;;;;;18.53;13.57;;;15.90;99.90;;;-143.14;100.00;56521.75;4987366;28;21449;-76
2022/05/01 12:58:06;;;;;;;18.57;13.80;;;15.90;99.90;;;-143.14;100.00;56521.75;4986957;28;20451;-76
2022/05/01 13:00:39;;;;;;;16.13;12.90;;;15.90;99.90;;;-143.14;100.00;56521.75;4987098;28;20529;-75
2022/05/01 13:03:24;;;;;;;13.43;11.27;;;15.90;99.90;;;-143.14;100.00;56521.75;4986569;28;20786;-76
2022/05/01 13:06:06;;;;;;;18.63;14.47;;;16.00;99.90;;;-143.14;100.00;56521.75;4987063;28;20480;-76
2022/05/01 13:08:36;;;;;;;16.30;13.30;;;16.00;99.90;;;-143.14;100.00;56521.75;4986509;28;20979;-74
2022/05/01 13:11:25;;;;;;;17.50;13.70;;;15.90;99.90;;;-143.14;100.00;56521.75;4986319;28;20981;-76
2022/05/01 13:13:56;;;;;;;15.00;13.33;;;15.80;99.90;;;-143.14;100.00;56521.75;4982888;28;20463;-73
2022/05/01 13:16:26;;;;;;;14.87;12.23;;;15.80;99.90;;;-143.14;100.00;56521.75;4987436;28;20811;-76
2022/05/01 13:18:58;;;;;;;14.63;12.87;;;15.90;99.90;;;-143.14;100.00;56521.75;4986183;28;20452;-70
2022/05/01 13:21:30;;;;;;;13.87;12.30;;;15.90;99.90;;;-143.14;100.00;56521.75;4986688;28;20476;-72
2022/05/01 13:24:01;;;;;;;16.13;13.37;;;16.00;99.90;;;-143.14;100.00;56521.75;4985484;28;21393;-72
2022/05/01 13:26:29;;;;;;;15.67;12.37;;;16.00;99.90;;;-143.14;100.00;56521.75;4986298;28;20506;-72
2022/05/01 13:28:57;;;;;;;15.40;11.20;;;16.00;99.90;;;-143.14;100.00;56521.75;4986150;28;20542;-72
2022/05/01 13:31:24;;;;;;;14.30;12.73;;;16.00;99.90;;;-143.14;100.00;56521.75;4986094;28;21009;-72
2022/05/01 13:33:52;;;;;;;16.10;13.53;;;16.00;99.90;;;-143.14;100.00;56521.75;4985505;28;21118;-73
2022/05/01 13:36:20;;;;;;;17.87;13.90;;;16.10;99.90;;;-143.14;100.00;56521.75;4986351;28;20452;-70
2022/05/01 13:38:48;;;;;;;15.73;12.73;;;16.10;99.90;;;-143.14;100.00;56521.75;4986112;28;20538;-72
2022/05/01 13:46:44;;;;;;;14.20;12.30;;;16.40;99.90;;;-143.14;100.00;56521.75;4986243;28;20494;-73
2022/05/01 13:49:11;;;;;;;15.27;12.50;;;16.40;99.90;;;-143.14;100.00;56521.75;4986228;28;20468;-71
2022/05/01 13:51:40;;;;;;;23.03;12.87;;;16.40;99.90;;;-143.14;100.00;56521.75;4986005;28;20565;-71
2022/05/01 13:54:08;;;;;;;16.47;11.70;;;16.50;99.90;;;-143.14;100.00;56521.75;4985395;28;21270;-74
2022/05/01 13:56:35;;;;;;;12.27;10.63;;;16.70;99.90;;;-143.14;100.00;56521.75;4986315;28;20455;-75
2022/05/01 13:59:04;;;;;;;11.87;10.57;;;16.80;99.90;;;-143.14;100.00;56521.75;4988888;28;20460;-76
2022/05/01 14:01:32;;;;;;;15.17;11.80;;;16.80;99.90;;;-143.14;100.00;56521.75;4990091;28;20894;-74
2022/05/01 14:04:01;;;;;;;13.60;11.40;;;16.80;99.90;;;-143.14;100.00;56521.75;4989893;28;20456;-74
2022/05/01 14:06:29;;;;;;;13.53;10.80;;;16.80;99.90;;;-143.14;100.00;56521.75;4990220;28;20494;-73
2022/05/01 14:08:58;;;;;;;18.37;11.70;;;16.80;99.90;;;-143.14;100.00;56521.75;4990511;28;20454;-69
2022/05/01 14:11:27;;;;;;;14.37;11.80;;;16.80;99.90;;;-143.14;100.00;56521.75;4990154;28;20553;-72
2022/05/01 14:13:55;;;;;;;12.70;11.33;;;16.80;99.90;;;-143.14;100.00;56521.75;4989780;28;20487;-72
2022/05/01 14:16:22;;;;;;;13.43;11.20;;;16.90;99.90;;;-143.14;100.00;56521.75;4989888;28;20514;-72
2022/05/01 14:18:52;;;;;;;11.47;10.10;;;17.00;99.90;;;-143.14;100.00;56521.75;4990266;28;20451;-71
2022/05/01 14:21:20;;;;;;;13.43;10.10;;;17.10;99.90;;;-143.14;100.00;56521.75;4990049;28;20481;-79
2022/05/01 14:23:48;;;;;;;13.67;10.17;;;17.20;99.90;;;-143.14;100.00;56521.75;4990782;28;20549;-75
2022/05/01 14:26:17;;;;;;;11.53;10.33;;;17.30;99.90;;;-143.14;100.00;56521.75;4990254;28;20621;-77
2022/05/01 14:28:44;;;;;;;14.03;11.47;;;17.40;99.90;;;-143.14;100.00;56521.75;4990508;28;20467;-76
2022/05/01 14:31:20;;;;;;;12.47;9.97;;;17.50;99.90;;;-143.14;100.00;56521.75;4990410;28;20574;-75
2022/05/01 14:33:54;;;;;;;10.87;9.33;;;17.70;99.90;;;-143.14;100.00;56521.75;4988722;28;20444;-75
2022/05/01 14:36:29;;;;;;;13.00;9.77;;;17.80;99.90;;;-143.14;100.00;56521.75;4989881;28;20562;-75
2022/05/01 14:39:04;;;;;;;11.00;9.20;;;17.80;99.90;;;-143.14;100.00;56521.75;4994884;28;20447;-73
2022/05/01 14:41:35;;;;;;;11.93;9.87;;;17.90;99.90;;;;;;4998983;28;20481;-75
2022/05/01 14:44:06;;;;;;;13.50;9.50;;;18.10;99.90;;;;;;4991892;28;20440;-75
2022/05/01 14:46:39;;;;;;;10.03;8.30;;;18.20;99.90;;;;;;4989782;28;20507;-72
2022/05/01 14:49:33;;;;;;;12.00;9.50;;;18.20;99.90;;;;;;4990315;28;20802;-77
2022/05/01 14:52:01;;;;;;;12.47;8.40;;;18.30;99.90;;;;;;4990775;28;20502;-76
2022/05/01 14:54:29;;;;;;;12.10;8.77;;;18.40;99.90;;;;;;4988900;28;20527;-75
2022/05/01 14:57:00;;;;;;;10.10;8.67;;;18.40;99.90;;;;;;4988947;28;20490;-76
2022/05/01 15:07:59;;;;;;;12.30;9.40;;;18.30;99.90;;;-143.14;100.00;56521.75;4993463;28;20541;-76
2022/05/01 15:10:26;;;;;;;12.50;10.07;;;18.20;99.90;;;-143.14;100.00;56521.75;4989192;28;20542;-76
2022/05/01 15:12:56;;;;;;;11.00;8.27;;;18.10;99.90;;;-143.14;100.00;56521.75;4987501;28;20461;-74
2022/05/01 15:15:29;;;;;;;9.57;8.60;;;18.10;99.90;;;-143.14;100.00;56521.75;4988426;28;20458;-73
2022/05/01 15:17:59;;;;;;;10.07;9.07;;;18.20;99.90;;;-143.14;100.00;56521.75;4990280;28;20450;-76
2022/05/01 15:20:28;;;;;;;9.33;8.33;;;18.10;99.90;;;-143.14;100.00;56521.75;4989962;28;20463;-76
2022/05/01 15:23:12;;;;;;;10.00;8.30;;;18.10;99.90;;;-143.14;100.00;56521.75;4988745;28;20542;-76
2022/05/01 15:25:49;;;;;;;14.03;8.87;;;18.10;99.90;;;-143.14;100.00;56521.75;4987733;28;20535;-76
2022/05/01 15:28:20;;;;;;;9.57;8.57;;;18.00;99.90;;;-143.14;100.00;56521.75;4988337;28;20482;-76
2022/05/01 15:30:52;;;;;;;12.10;7.97;;;18.00;99.90;;;-143.14;100.00;56521.75;4988083;28;20479;-75
2022/05/01 15:33:43;;;;;;;8.13;7.00;;;18.00;99.90;;;-143.14;100.00;56521.75;4990288;28;20435;-76
2022/05/01 15:36:33;;;;;;;12.03;9.40;;;18.00;99.90;;;-143.14;100.00;56521.75;4994264;28;20444;-76
2022/05/01 15:39:05;;;;;;;14.70;9.60;;;18.00;99.90;;;-143.14;100.00;56521.75;4990493;28;20548;-76
2022/05/01 15:41:44;;;;;;;9.90;8.17;;;18.00;99.90;;;-143.14;100.00;56521.75;5003111;28;20496;-74
2022/05/01 15:44:16;;;;;;;12.03;8.70;;;18.10;99.90;;;-143.14;100.00;56521.75;5008827;28;20931;-73
2022/05/01 15:46:55;;;;;;;11.20;9.70;;;18.10;99.90;;;-143.14;100.00;56521.75;5008399;28;20491;-75
2022/05/01 15:54:58;;;;;;;10.00;8.53;;;18.00;99.90;;;-143.14;100.00;56521.75;5016109;28;20461;-74
2022/05/01 15:57:30;;;;;;;10.33;9.23;;;18.00;99.90;;;-143.14;100.00;56521.75;5011223;28;20485;-73
2022/05/01 16:00:04;;;;;;;10.03;8.37;;;17.80;99.90;;;-143.14;100.00;56521.75;5014478;28;20439;-72
2022/05/01 16:02:32;;;;;;;13.07;9.17;;;17.80;99.90;;;-143.14;100.00;56521.75;5013177;28;20545;-72
2022/05/01 16:04:59;;;;;;;13.03;8.20;;;17.80;99.90;;;-143.14;100.00;56521.75;5012213;28;20463;-76
2022/05/01 16:07:36;;;;;;;11.30;9.47;;;17.80;99.90;;;-143.14;100.00;56521.75;5010580;28;20502;-73
2022/05/01 16:10:11;;;;;;;10.87;8.87;;;17.80;99.90;;;-143.14;100.00;56521.75;5008928;28;20453;-73
2022/05/01 16:12:51;;;;;;;10.90;8.03;;;17.70;99.90;;;-143.14;100.00;56521.75;5010457;28;20557;-75
2022/05/01 16:15:26;;;;;;;11.17;9.17;;;17.80;99.90;;;-143.14;100.00;56521.75;5014100;28;20565;-76
2022/05/01 16:18:36;;;;;;;9.97;8.63;;;17.80;99.90;;;-143.14;100.00;56521.75;5008472;28;21036;-76
2022/05/01 16:21:16;;;;;;;10.67;8.50;;;17.90;99.90;;;-143.14;100.00;56521.75;5015314;28;20489;-76
2022/05/01 16:23:53;;;;;;;9.17;8.20;;;17.90;99.90;;;-143.14;100.00;56521.75;5013561;28;20530;-76